Time;durP1;ratioP1;P1;durP2;ratioP2;P2;SDS_P1;SDS_P2;PMS_P1;PMS_P2;Temp;Humidity;BMP_temperature;BMP_pressure;BME280_temperature;BME280_humidity;BME280_pressure;Samples;Min_cycle;Max_cycle;Signal;HPM_P1;HPM_P2
2022/01/05 00:02:01;;;;;;;2.60;2.20;;;;;;;3.98;100.00;97504.38;5106167;28;20047;-78
2022/01/05 00:04:27;;;;;;;2.63;2.20;;;;;;;3.96;100.00;97505.56;5109795;28;20498;-79
2022/01/05 00:06:54;;;;;;;9.05;2.10;;;;;;;3.93;100.00;97501.41;5093357;28;20055;-79
2022/01/05 00:09:21;;;;;;;2.75;2.00;;;;;;;3.80;100.00;97493.16;5096559;28;20040;-79
2022/01/05 00:11:48;;;;;;;1.92;1.65;;;;;;;3.93;100.00;97484.44;5115124;28;20475;-79
2022/01/05 00:14:15;;;;;;;2.00;1.65;;;;;;;3.95;100.00;97485.94;5114523;28;20403;-79
2022/01/05 00:16:42;;;;;;;2.40;2.03;;;;;;;3.92;100.00;97480.09;5117146;28;20051;-79
2022/01/05 00:19:10;;;;;;;2.38;1.70;;;;;;;3.95;100.00;97477.84;5110630;28;20055;-78
2022/01/05 00:21:38;;;;;;;2.28;1.52;;;;;;;3.97;100.00;97489.25;5114548;28;20054;-79
2022/01/05 00:24:05;;;;;;;2.42;1.95;;;;;;;3.88;100.00;97472.41;5116550;27;20059;-78
2022/01/05 00:26:32;;;;;;;1.77;1.42;;;;;;;3.79;100.00;97457.34;5097016;28;20048;-79
2022/01/05 00:28:59;;;;;;;1.95;1.52;;;;;;;4.01;100.00;97478.97;5096724;28;20059;-79
2022/01/05 00:31:26;;;;;;;1.80;1.70;;;;;;;3.99;100.00;97481.84;5115440;28;20066;-78
2022/01/05 00:33:53;;;;;;;1.92;1.48;;;;;;;3.96;100.00;97484.91;5102632;28;20048;-78
2022/01/05 00:36:21;;;;;;;1.67;1.45;;;;;;;4.00;100.00;97488.88;5114585;28;20051;-78
2022/01/05 00:38:49;;;;;;;2.65;1.67;;;;;;;4.01;100.00;97482.50;5107612;28;20043;-78
2022/01/05 00:41:15;;;;;;;1.83;1.55;;;;;;;3.99;100.00;97478.31;5101607;28;20048;-78
2022/01/05 00:43:42;;;;;;;4.68;1.48;;;;;;;3.98;100.00;97465.91;5103907;28;20051;-79
2022/01/05 00:46:09;;;;;;;2.13;1.13;;;;;;;3.90;100.00;97448.84;5113351;28;20050;-79
2022/01/05 00:48:36;;;;;;;2.30;1.30;;;;;;;3.82;100.00;97431.94;5097348;28;20048;-78
2022/01/05 00:51:04;;;;;;;1.30;1.20;;;;;;;3.98;100.00;97452.47;5108163;28;20040;-78
2022/01/05 00:53:33;;;;;;;1.10;1.00;;;;;;;3.85;100.00;97443.19;5113315;28;20051;-78
2022/01/05 00:55:59;;;;;;;1.27;0.80;;;;;;;4.00;100.00;97453.09;5115972;27;20048;-79
2022/01/05 00:58:26;;;;;;;0.70;0.70;;;;;;;3.98;100.00;97447.91;5108253;28;20052;-78
2022/01/05 01:00:54;;;;;;;0.55;0.55;;;;;;;4.01;100.00;97436.78;5103082;28;20047;-78
2022/01/05 01:03:21;;;;;;;1.08;0.90;;;;;;;4.02;100.00;97438.47;5114418;28;20100;-79
2022/01/05 01:05:48;;;;;;;1.20;0.60;;;;;;;4.01;100.00;97435.97;5111999;28;20052;-79
2022/01/05 01:08:15;;;;;;;1.95;0.93;;;;;;;4.14;100.00;97436.16;5095739;28;20044;-79
2022/01/05 01:10:43;;;;;;;1.30;1.00;;;;;;;4.08;100.00;97443.09;5095745;28;20043;-78
2022/01/05 01:13:10;;;;;;;0.80;0.80;;;;;;;4.10;100.00;97437.53;5095629;28;20054;-79
2022/01/05 01:15:37;;;;;;;2.42;0.80;;;;;;;4.02;100.00;97427.72;5102651;28;20053;-78
2022/01/05 01:18:04;;;;;;;0.80;0.75;;;;;;;4.08;100.00;97440.41;5115489;27;20491;-78
2022/01/05 01:20:31;;;;;;;0.60;0.60;;;;;;;3.98;100.00;97441.72;5115023;28;20040;-78
2022/01/05 01:22:57;;;;;;;0.70;0.70;;;;;;;4.04;100.00;97454.41;5115024;28;20051;-79
2022/01/05 01:25:24;;;;;;;1.70;0.70;;;;;;;4.04;100.00;97465.16;5111456;28;20048;-78
2022/01/05 01:27:53;;;;;;;0.57;0.57;;;;;;;4.06;100.00;97452.34;5098425;28;20043;-79
2022/01/05 01:30:20;;;;;;;0.70;0.60;;;;;;;4.05;100.00;97458.75;5114896;27;20044;-79
2022/01/05 01:32:47;;;;;;;0.82;0.70;;;;;;;4.06;100.00;97461.28;5109222;28;20043;-79
2022/01/05 01:35:14;;;;;;;0.50;0.50;;;;;;;4.13;100.00;97469.44;5101811;28;20479;-78
2022/01/05 01:37:41;;;;;;;0.63;0.60;;;;;;;4.17;100.00;97477.94;5115935;28;20078;-78
2022/01/05 01:40:09;;;;;;;0.60;0.60;;;;;;;4.07;100.00;97475.56;5111905;28;20047;-78
2022/01/05 01:42:36;;;;;;;0.50;0.50;;;;;;;4.01;100.00;97485.19;5101745;28;20058;-78
2022/01/05 01:45:06;;;;;;;0.50;0.50;;;;;;;4.00;100.00;97485.38;5102308;28;20050;-78
2022/01/05 01:47:33;;;;;;;0.45;0.45;;;;;;;4.04;100.00;97484.81;5115807;28;20646;-78
2022/01/05 01:50:00;;;;;;;0.43;0.32;;;;;;;4.01;100.00;97482.50;5112532;28;20040;-79
2022/01/05 01:52:27;;;;;;;0.65;0.65;;;;;;;4.10;100.00;97485.13;5115482;27;20044;-78
2022/01/05 01:54:54;;;;;;;0.60;0.60;;;;;;;4.17;100.00;97486.88;5114642;28;20043;-78
2022/01/05 01:57:22;;;;;;;0.35;0.35;;;;;;;4.02;100.00;97475.25;5097944;28;20055;-79
2022/01/05 01:59:49;;;;;;;0.63;0.40;;;;;;;3.99;100.00;97481.00;5097907;28;20050;-78
2022/01/05 02:02:18;;;;;;;0.50;0.50;;;;;;;3.99;100.00;97467.56;5108830;28;20071;-78
2022/01/05 02:04:45;;;;;;;3.03;0.60;;;;;;;4.08;100.00;97490.69;5095992;28;20054;-79
2022/01/05 02:07:12;;;;;;;0.60;0.60;;;;;;;4.15;100.00;97488.91;5101972;27;20062;-78
2022/01/05 02:09:41;;;;;;;1.45;0.43;;;;;;;3.99;100.00;97470.25;5113049;27;20439;-79
2022/01/05 02:12:09;;;;;;;0.40;0.40;;;;;;;4.01;100.00;97470.91;5108516;28;20043;-79
2022/01/05 02:14:36;;;;;;;0.70;0.55;;;;;;;4.12;100.00;97489.28;5104404;28;20122;-79
2022/01/05 02:17:09;;;;;;;3.45;0.40;;;;;;;4.02;100.00;97502.16;5114807;27;20058;-79
2022/01/05 02:19:40;;;;;;;0.40;0.40;;;;;;;4.03;100.00;97503.81;5098547;28;20066;-78
2022/01/05 02:22:08;;;;;;;0.47;0.47;;;;;;;4.26;100.00;97525.28;5094041;28;20040;-78
2022/01/05 02:24:35;;;;;;;0.40;0.40;;;;;;;4.08;100.00;97515.72;5102803;27;20039;-78
2022/01/05 02:27:02;;;;;;;0.40;0.40;;;;;;;4.14;100.00;97515.97;5114402;28;20048;-78
2022/01/05 02:29:29;;;;;;;0.60;0.38;;;;;;;4.21;100.00;97515.06;5097552;27;20704;-78
2022/01/05 02:31:59;;;;;;;0.55;0.55;;;;;;;4.19;100.00;97522.47;5102129;28;20048;-79
2022/01/05 02:34:26;;;;;;;0.40;0.40;;;;;;;4.31;100.00;97513.97;5098009;28;20056;-78
2022/01/05 02:36:53;;;;;;;0.63;0.50;;;;;;;4.34;100.00;97514.41;5111941;28;20044;-78
2022/01/05 02:39:21;;;;;;;0.30;0.30;;;;;;;4.29;100.00;97507.91;5114468;28;20056;-79
2022/01/05 02:41:49;;;;;;;1.65;0.52;;;;;;;4.33;100.00;97493.09;5112967;28;20058;-78
2022/01/05 02:44:15;;;;;;;0.47;0.47;;;;;;;4.23;100.00;97487.97;5104916;28;20403;-79
2022/01/05 02:46:42;;;;;;;0.40;0.40;;;;;;;4.24;100.00;97511.16;5114478;28;20069;-78
2022/01/05 02:49:09;;;;;;;0.32;0.32;;;;;;;4.18;100.00;97491.22;5100321;28;20048;-79
2022/01/05 02:51:36;;;;;;;0.47;0.47;;;;;;;4.33;100.00;97518.13;5102035;28;20043;-79
2022/01/05 02:54:04;;;;;;;0.85;0.60;;;;;;;4.40;100.00;97510.16;5104942;28;20051;-78
2022/01/05 02:56:33;;;;;;;0.45;0.45;;;;;;;4.24;100.00;97495.84;5114226;28;20560;-78
2022/01/05 02:59:00;;;;;;;0.40;0.40;;;;;;;4.24;100.00;97497.72;5107670;28;20051;-78
2022/01/05 03:01:26;;;;;;;2.47;0.70;;;;;;;4.11;100.00;97498.38;5113190;28;20039;-78
2022/01/05 03:03:53;;;;;;;0.40;0.40;;;;;;;4.28;100.00;97508.97;5105095;27;20080;-79
2022/01/05 03:06:22;;;;;;;0.30;0.30;;;;;;;4.20;100.00;97488.34;5093698;28;20055;-78
2022/01/05 03:08:52;;;;;;;2.13;0.40;;;;;;;4.24;100.00;97517.38;5092077;28;20126;-78
2022/01/05 03:11:19;;;;;;;0.30;0.30;;;;;;;4.10;100.00;97503.94;5093578;28;20055;-79
2022/01/05 03:13:49;;;;;;;0.22;0.22;;;;;;;4.24;100.00;97520.06;5101156;28;20140;-79
2022/01/05 03:16:15;;;;;;;0.20;0.20;;;;;;;4.18;100.00;97518.09;5113867;28;20091;-78
2022/01/05 03:18:42;;;;;;;0.77;0.20;;;;;;;4.20;100.00;97508.03;5108519;28;20395;-78
2022/01/05 03:21:09;;;;;;;2.28;0.60;;;;;;;4.22;100.00;97518.59;5093300;28;20059;-78
2022/01/05 03:23:36;;;;;;;1.15;0.50;;;;;;;4.22;100.00;97522.09;5112278;28;20395;-79
2022/01/05 03:26:03;;;;;;;0.22;0.22;;;;;;;4.30;100.00;97518.50;5113824;28;20062;-79
2022/01/05 03:28:30;;;;;;;2.25;0.50;;;;;;;4.33;100.00;97523.50;5104593;27;20121;-79
2022/01/05 03:30:58;;;;;;;0.45;0.30;;;;;;;4.27;100.00;97526.94;5097469;28;20078;-78
2022/01/05 03:33:25;;;;;;;0.45;0.45;;;;;;;4.16;100.00;97512.09;5113117;28;20457;-79
2022/01/05 03:35:52;;;;;;;0.40;0.40;;;;;;;4.10;100.00;97507.47;5113744;28;20048;-79
2022/01/05 03:38:19;;;;;;;0.60;0.50;;;;;;;4.16;100.00;97508.56;5112934;28;20053;-78
2022/01/05 03:40:48;;;;;;;1.45;0.52;;;;;;;4.10;100.00;97525.47;5093247;28;20055;-78
2022/01/05 03:43:15;;;;;;;0.45;0.35;;;;;;;4.19;100.00;97517.09;5107083;28;20051;-78
2022/01/05 03:45:43;;;;;;;0.55;0.40;;;;;;;4.25;100.00;97513.66;5093603;28;20099;-78
2022/01/05 03:48:13;;;;;;;0.50;0.50;;;;;;;4.14;100.00;97513.28;5103006;28;20051;-78
2022/01/05 03:50:41;;;;;;;1.38;0.60;;;;;;;4.01;100.00;97520.16;5117162;28;20055;-78
2022/01/05 03:53:09;;;;;;;0.57;0.50;;;;;;;4.01;100.00;97522.00;5117971;28;20039;-78
2022/01/05 03:55:37;;;;;;;2.38;0.60;;;;;;;4.16;100.00;97525.53;5117390;28;20051;-78
2022/01/05 03:58:05;;;;;;;0.40;0.40;;;;;;;4.11;100.00;97511.81;5117698;28;20048;-78
2022/01/05 04:00:33;;;;;;;0.75;0.47;;;;;;;4.00;100.00;97506.88;5099483;28;20492;-79
2022/01/05 04:03:01;;;;;;;0.52;0.52;;;;;;;4.11;100.00;97527.97;5112955;28;20052;-78
2022/01/05 04:05:29;;;;;;;0.60;0.60;;;;;;;4.07;100.00;97530.16;5096074;28;20058;-78
2022/01/05 04:07:56;;;;;;;0.50;0.50;;;;;;;4.10;100.00;97537.03;5096971;28;20491;-78
2022/01/05 04:10:24;;;;;;;0.80;0.70;;;;;;;3.98;100.00;97531.25;5096817;28;20556;-79
2022/01/05 04:12:51;;;;;;;0.60;0.60;;;;;;;4.01;100.00;97530.06;5096805;28;20044;-79
2022/01/05 04:15:18;;;;;;;0.50;0.50;;;;;;;4.04;100.00;97541.28;5096505;28;20051;-78
2022/01/05 04:17:45;;;;;;;0.45;0.45;;;;;;;3.99;100.00;97538.31;5096949;28;20412;-78
2022/01/05 04:20:13;;;;;;;0.65;0.40;;;;;;;4.09;100.00;97559.56;5095810;28;20044;-79
2022/01/05 04:22:42;;;;;;;0.52;0.52;;;;;;;4.03;100.00;97552.22;5115358;28;20043;-78
2022/01/05 04:25:10;;;;;;;1.27;0.60;;;;;;;4.04;100.00;97560.13;5106453;28;20056;-79
2022/01/05 04:27:37;;;;;;;1.08;1.00;;;;;;;4.03;100.00;97573.75;5096792;28;20040;-79
2022/01/05 04:30:05;;;;;;;4.55;0.60;;;;;;;3.98;100.00;97570.78;5105450;28;20043;-78
2022/01/05 04:32:32;;;;;;;3.67;0.50;;;;;;;3.97;100.00;97583.38;5104145;28;20122;-78
2022/01/05 04:34:59;;;;;;;0.60;0.60;;;;;;;3.92;100.00;97579.56;5101653;28;20052;-78
2022/01/05 04:37:26;;;;;;;0.70;0.50;;;;;;;3.93;100.00;97594.66;5115070;28;20066;-78
2022/01/05 04:39:54;;;;;;;1.52;0.63;;;;;;;3.86;100.00;97584.63;5102310;28;20078;-78
2022/01/05 04:42:21;;;;;;;0.40;0.40;;;;;;;3.96;100.00;97600.53;5106510;28;20051;-78
2022/01/05 04:44:48;;;;;;;0.60;0.60;;;;;;;3.95;100.00;97600.72;5099309;28;20487;-78
2022/01/05 04:47:15;;;;;;;0.45;0.45;;;;;;;3.94;100.00;97596.34;5096414;28;20048;-78
2022/01/05 04:49:42;;;;;;;0.88;0.50;;;;;;;3.90;100.00;97594.03;5099626;28;20453;-78
2022/01/05 04:52:09;;;;;;;1.88;0.80;;;;;;;3.88;100.00;97590.69;5111094;28;20586;-78
2022/01/05 04:54:36;;;;;;;0.50;0.50;;;;;;;3.96;100.00;97603.22;5111498;28;20055;-78
2022/01/05 04:57:06;;;;;;;0.75;0.63;;;;;;;3.99;100.00;97585.88;5095559;28;20044;-81
2022/01/05 04:59:34;;;;;;;0.65;0.63;;;;;;;4.00;100.00;97601.00;5096841;28;20066;-80
2022/01/05 05:02:01;;;;;;;1.25;0.70;;;;;;;4.04;100.00;97597.75;5116347;28;20044;-79
2022/01/05 05:04:28;;;;;;;1.23;1.13;;;;;;;4.12;100.00;97612.97;5116333;28;20048;-81
2022/01/05 05:06:55;;;;;;;0.50;0.50;;;;;;;3.39;100.00;97660.03;5116459;27;20083;-80
2022/01/05 05:09:22;;;;;;;0.50;0.50;;;;;;;2.67;100.00;97647.59;5114460;28;20048;-80
2022/01/05 05:11:49;;;;;;;0.60;0.60;;;;;;;2.31;100.00;97654.19;5107018;28;20055;-80
2022/01/05 05:14:17;;;;;;;0.80;0.60;;;;;;;1.94;100.00;97668.94;5116099;28;20051;-82
2022/01/05 05:16:44;;;;;;;0.60;0.60;;;;;;;1.97;100.00;97698.06;5115121;28;20047;-79
2022/01/05 05:19:11;;;;;;;0.63;0.63;;;;;;;1.65;100.00;97691.69;5113143;27;20074;-82
2022/01/05 05:21:38;;;;;;;0.80;0.80;;;;;;;1.62;100.00;97700.03;5107147;28;20388;-80
2022/01/05 05:24:05;;;;;;;1.13;1.02;;;;;;;1.67;100.00;97712.94;5095432;28;20052;-80
2022/01/05 05:26:32;;;;;;;0.98;0.90;;;;;;;1.72;100.00;97740.09;5095983;28;20483;-81
2022/01/05 05:28:59;;;;;;;0.80;0.80;;;;;;;1.58;100.00;97749.56;5115067;28;20046;-80
2022/01/05 05:31:28;;;;;;;1.63;1.20;;;;;;;1.53;100.00;97751.91;5115992;27;20395;-81
2022/01/05 05:33:55;;;;;;;1.50;1.40;;;;;;;1.47;100.00;97768.63;5106690;27;20048;-81
2022/01/05 05:36:22;;;;;;;1.67;1.58;;;;;;;1.52;100.00;97780.56;5095158;28;20056;-81
2022/01/05 05:38:48;;;;;;;2.90;2.35;;;;;;;1.49;100.00;97764.81;5102799;28;20036;-81
2022/01/05 05:41:15;;;;;;;3.25;2.50;;;;;;;1.52;100.00;97788.59;5096734;27;20381;-80
2022/01/05 05:43:42;;;;;;;4.25;3.30;;;;;;;1.43;100.00;97781.53;5105034;28;20403;-80
2022/01/05 05:46:09;;;;;;;4.10;3.35;;;;;;;1.54;100.00;97793.78;5115407;28;20407;-80
2022/01/05 05:48:38;;;;;;;3.20;2.60;;;;;;;1.50;100.00;97803.13;5114930;28;20054;-80
2022/01/05 05:51:04;;;;;;;4.68;3.08;;;;;;;1.57;100.00;97825.59;5115718;27;20051;-80
2022/01/05 05:53:31;;;;;;;3.53;3.20;;;;;;;1.58;100.00;97824.59;5114538;28;20044;-80
2022/01/05 05:55:58;;;;;;;6.55;3.88;;;;;;;1.51;100.00;97821.72;5115288;27;20497;-80
2022/01/05 05:58:25;;;;;;;3.95;3.42;;;;;;;1.56;100.00;97830.09;5112801;28;20058;-81
2022/01/05 06:00:52;;;;;;;5.63;3.63;;;;;;;1.71;100.00;97846.41;5114800;28;20057;-80
2022/01/05 06:03:19;;;;;;;5.40;4.00;;;;;;;1.73;100.00;97851.59;5113830;28;20044;-80
2022/01/05 06:05:47;;;;;;;6.22;3.60;;;;;;;1.80;100.00;97874.09;5094927;28;20055;-80
2022/01/05 06:08:14;;;;;;;4.10;2.95;;;;;;;1.68;100.00;97875.38;5097189;28;20130;-81
2022/01/05 06:10:41;;;;;;;8.50;4.35;;;;;;;1.75;100.00;97885.28;5097909;28;20098;-81
2022/01/05 06:13:08;;;;;;;9.68;3.03;;;;;;;1.70;100.00;97884.09;5094734;28;20058;-81
2022/01/05 06:15:35;;;;;;;3.58;2.13;;;;;;;1.77;100.00;97894.00;5112842;28;20048;-81
2022/01/05 06:18:02;;;;;;;2.38;2.10;;;;;;;1.66;100.00;97883.56;5114501;28;20384;-80
2022/01/05 06:20:29;;;;;;;5.25;2.00;;;;;;;1.80;100.00;97906.25;5111514;28;20048;-80
2022/01/05 06:22:57;;;;;;;6.90;2.17;;;;;;;1.69;100.00;97895.81;5094401;28;20126;-80
2022/01/05 06:25:24;;;;;;;4.55;2.05;;;;;;;1.76;100.00;97919.13;5110336;28;20138;-80
2022/01/05 06:27:51;;;;;;;3.53;2.05;;;;;;;1.78;100.00;97913.63;5100834;28;20059;-81
2022/01/05 06:30:18;;;;;;;4.25;2.60;;;;;;;1.81;100.00;97929.38;5107893;28;20048;-80
2022/01/05 06:32:47;;;;;;;4.38;2.03;;;;;;;1.86;100.00;97929.72;5108798;28;20054;-80
2022/01/05 06:35:15;;;;;;;3.38;1.55;;;;;;;1.85;100.00;97929.88;5107426;28;20513;-80
2022/01/05 06:37:42;;;;;;;6.22;2.20;;;;;;;1.77;100.00;97928.00;5114582;27;20052;-80
2022/01/05 06:40:11;;;;;;;3.10;1.95;;;;;;;1.80;100.00;97926.84;5101837;28;20051;-81
2022/01/05 06:42:38;;;;;;;5.80;2.10;;;;;;;1.79;100.00;97919.81;5093822;28;20537;-80
2022/01/05 06:45:06;;;;;;;8.10;1.67;;;;;;;1.85;100.00;97932.56;5105151;28;20052;-80
2022/01/05 06:47:33;;;;;;;6.00;2.33;;;;;;;1.86;100.00;97942.28;5108925;27;20054;-80
2022/01/05 06:50:00;;;;;;;2.25;1.77;;;;;;;2.06;100.00;97946.44;5113889;28;20594;-80
2022/01/05 06:52:27;;;;;;;11.18;2.00;;;;;;;1.97;100.00;97943.84;5114091;28;20043;-80
2022/01/05 06:54:54;;;;;;;5.30;2.47;;;;;;;2.04;100.00;97959.13;5114328;27;20482;-80
2022/01/05 06:57:22;;;;;;;4.00;1.85;;;;;;;2.05;100.00;97957.31;5106637;28;20052;-80
2022/01/05 06:59:49;;;;;;;3.35;2.58;;;;;;;1.89;100.00;97952.69;5093469;28;20062;-80
2022/01/05 07:02:16;;;;;;;2.42;1.92;;;;;;;1.85;100.00;97978.97;5099388;28;20483;-80
2022/01/05 07:04:43;;;;;;;2.33;1.50;;;;;;;1.84;100.00;97988.00;5112641;28;20480;-80
2022/01/05 07:07:10;;;;;;;1.48;0.88;;;;;;;1.55;100.00;97972.25;5108747;28;20047;-79
2022/01/05 07:09:37;;;;;;;2.92;1.40;;;;;;;1.45;100.00;97976.88;5093750;28;20074;-81
2022/01/05 07:12:04;;;;;;;1.92;1.20;;;;;;;1.61;100.00;97993.03;5096470;28;20046;-81
2022/01/05 07:14:33;;;;;;;2.38;1.38;;;;;;;1.41;100.00;97974.47;5114472;27;20392;-81
2022/01/05 07:17:00;;;;;;;3.13;1.15;;;;;;;1.40;100.00;97985.34;5111381;28;20552;-81
2022/01/05 07:19:27;;;;;;;2.45;1.85;;;;;;;1.49;100.00;97996.97;5093884;28;20087;-81
2022/01/05 07:21:54;;;;;;;1.48;1.10;;;;;;;1.40;100.00;97998.75;5106129;28;20502;-80
2022/01/05 07:24:21;;;;;;;1.73;1.27;;;;;;;1.40;100.00;97990.72;5109171;28;20603;-82
2022/01/05 07:26:49;;;;;;;3.35;1.52;;;;;;;1.49;100.00;98005.00;5113906;28;20055;-81
2022/01/05 07:29:17;;;;;;;4.15;1.40;;;;;;;1.41;100.00;98013.81;5094148;28;20052;-81
2022/01/05 07:31:46;;;;;;;4.72;1.40;;;;;;;1.22;100.00;97998.78;5093252;28;20040;-80
2022/01/05 07:34:13;;;;;;;3.47;1.25;;;;;;;1.18;100.00;98016.16;5094034;28;20400;-80
2022/01/05 07:36:40;;;;;;;2.25;1.25;;;;;;;1.08;100.00;98048.31;5093485;28;20543;-80
2022/01/05 07:39:08;;;;;;;1.13;0.88;;;;;;;0.86;100.00;98044.28;5110181;28;20047;-81
2022/01/05 07:41:37;;;;;;;4.43;1.15;;;;;;;0.80;100.00;98071.59;5113573;28;20385;-81
2022/01/05 07:44:05;;;;;;;2.15;1.15;;;;;;;0.59;100.00;98058.47;5098630;28;20044;-81
2022/01/05 07:46:32;;;;;;;3.28;1.30;;;;;;;0.59;100.00;98072.72;5095667;28;20488;-80
2022/01/05 07:49:02;;;;;;;1.15;1.10;;;;;;;0.26;100.00;98088.34;5093658;28;20499;-82
2022/01/05 07:51:29;;;;;;;2.30;1.77;;;;;;;0.12;100.00;98057.56;5093031;28;20052;-80
2022/01/05 07:53:56;;;;;;;3.83;1.95;;;;;;;0.20;100.00;98083.56;5093064;28;20048;-81
2022/01/05 07:56:23;;;;;;;4.22;2.30;;;;;;;0.26;100.00;98082.16;5100487;28;20047;-80
2022/01/05 07:58:50;;;;;;;7.35;1.95;;;;;;;0.24;100.00;98084.97;5106506;28;20046;-80
2022/01/05 08:01:18;;;;;;;1.63;1.52;;;;;;;0.29;100.00;98088.03;5113235;28;20054;-80
2022/01/05 08:03:46;;;;;;;2.30;1.30;;;;;;;0.32;100.00;98094.94;5107054;28;20044;-80
2022/01/05 08:06:14;;;;;;;3.00;2.05;;;;;;;0.53;100.00;98121.47;5102885;28;20483;-80
2022/01/05 08:08:43;;;;;;;1.70;1.60;;;;;;;0.48;100.00;98124.56;5092823;28;20055;-81
2022/01/05 08:11:10;;;;;;;3.38;2.03;;;;;;;0.65;100.00;98130.97;5102265;28;20055;-81
2022/01/05 08:13:37;;;;;;;7.05;1.77;;;;;;;0.72;100.00;98119.69;5109831;28;20534;-81
2022/01/05 08:16:05;;;;;;;1.50;1.40;;;;;;;0.77;100.00;98120.94;5113446;28;20051;-81
2022/01/05 08:18:31;;;;;;;6.03;1.95;;;;;;;0.59;100.00;98122.69;5096445;28;20052;-81
2022/01/05 08:20:58;;;;;;;8.20;2.20;;;;;;;0.57;100.00;98116.63;5092674;28;20078;-80
2022/01/05 08:23:27;;;;;;;10.60;3.63;;;;;;;0.62;100.00;98147.31;5105934;28;20048;-81
2022/01/05 08:25:55;;;;;;;6.65;2.85;;;;;;;0.77;100.00;98165.53;5093139;28;20058;-81
2022/01/05 08:28:22;;;;;;;15.73;3.90;;;;;;;0.63;100.00;98164.19;5097674;28;20055;-81
2022/01/05 08:30:49;;;;;;;7.38;2.00;;;;;;;0.81;100.00;98169.63;5092589;28;20575;-80
2022/01/05 08:33:17;;;;;;;4.50;1.60;;;;;;;0.80;100.00;98162.56;5098568;28;20048;-80
2022/01/05 08:35:45;;;;;;;5.25;2.15;;;;;;;0.83;100.00;98183.72;5096307;28;20044;-81
2022/01/05 08:38:13;;;;;;;5.65;1.55;;;;;;;0.69;100.00;98171.63;5096660;28;20062;-81
2022/01/05 08:40:42;;;;;;;6.55;2.00;;;;;;;0.64;100.00;98172.06;5115750;28;20043;-80
2022/01/05 08:43:11;;;;;;;7.80;1.35;;;;;;;0.69;100.00;98183.19;5116132;28;20047;-81
2022/01/05 08:45:38;;;;;;;4.13;1.98;;;;;;;0.78;100.00;98207.38;5104111;27;20052;-81
2022/01/05 08:48:06;;;;;;;9.48;2.83;;;;;;;0.80;100.00;98208.06;5103606;28;20043;-79
2022/01/05 08:50:34;;;;;;;8.10;2.38;;;;;;;0.81;100.00;98209.75;5116299;28;20043;-80
2022/01/05 08:53:02;;;;;;;3.53;2.25;;;;;;;0.75;100.00;98196.97;5115333;28;20043;-81
2022/01/05 08:55:31;;;;;;;6.28;2.97;;;;;;;0.93;100.00;98216.59;5101241;28;20127;-81
2022/01/05 08:58:00;;;;;;;9.77;2.80;;;;;;;0.77;100.00;98203.88;5115738;28;20051;-81
2022/01/05 09:00:27;;;;;;;6.63;2.50;;;;;;;0.78;100.00;98220.75;5116387;28;20056;-80
2022/01/05 09:02:54;;;;;;;7.13;1.85;;;;;;;0.91;100.00;98223.13;5114350;28;20043;-80
2022/01/05 09:05:21;;;;;;;4.60;1.85;;;;;;;0.83;100.00;98234.56;5115721;28;20048;-80
2022/01/05 09:07:48;;;;;;;6.20;1.70;;;;;;;0.86;100.00;98226.25;5115818;27;20048;-80
2022/01/05 09:10:15;;;;;;;4.68;1.95;;;;;;;0.81;100.00;98220.47;5106820;28;20047;-80
2022/01/05 09:12:42;;;;;;;13.77;2.78;;;;;;;0.82;100.00;98214.97;5097472;28;20055;-79
2022/01/05 09:15:11;;;;;;;5.72;2.13;;;;;;;0.95;100.00;98222.69;5108912;28;20048;-80
2022/01/05 09:17:38;;;;;;;15.75;2.70;;;;;;;0.94;100.00;98226.31;5095839;28;20050;-81
2022/01/05 09:20:07;;;;;;;3.40;2.10;;;;;;;0.93;100.00;98237.19;5114453;28;20047;-80
2022/01/05 09:22:37;;;;;;;7.50;2.10;;;;;;;1.06;100.00;98251.09;5106375;28;20043;-80
2022/01/05 09:25:05;;;;;;;4.22;2.13;;;;;;;1.13;100.00;98237.94;5109392;28;20043;-80
2022/01/05 09:27:32;;;;;;;3.05;1.80;;;;;;;1.19;100.00;98245.38;5115272;28;20384;-80
2022/01/05 09:29:59;;;;;;;4.80;1.70;;;;;;;1.08;100.00;98267.84;5095209;28;20048;-80
2022/01/05 09:32:28;;;;;;;1.95;1.58;;;;;;;1.08;100.00;98264.31;5099741;28;20039;-80
2022/01/05 09:34:54;;;;;;;10.07;3.33;;;;;;;1.02;100.00;98255.03;5115492;28;20040;-80
2022/01/05 09:37:25;;;;;;;12.05;3.80;;;;;;;1.11;100.00;98264.84;5098347;28;20052;-79
2022/01/05 09:42:37;;;;;;;8.82;2.20;;;;;;;1.27;100.00;98290.19;5115383;28;20054;-79
2022/01/05 09:45:19;;;;;;;4.97;2.17;;;;;;;1.15;100.00;98279.66;5114633;28;20048;-80
2022/01/05 09:48:11;;;;;;;2.17;1.25;;;;;;;1.18;100.00;98284.72;5110426;27;20051;-79
2022/01/05 09:50:45;;;;;;;8.88;1.90;;;;;;;1.07;97.46;98284.91;5094972;28;20054;-81
2022/01/05 09:53:14;;;;;;;3.90;1.40;;;;;;;1.22;95.58;98309.38;5103337;28;20051;-84
2022/01/05 09:55:42;;;;;;;9.05;1.95;;;;;;;1.18;94.69;98297.25;5118319;27;20039;-80
2022/01/05 09:58:09;;;;;;;3.08;1.52;;;;;;;1.10;94.58;98299.81;5114807;28;20051;-80
2022/01/05 10:00:36;;;;;;;6.70;1.75;;;;;;;1.16;95.43;98296.53;5106365;27;20040;-80
2022/01/05 10:03:07;;;;;;;4.35;2.25;;;;;;;1.13;91.86;98311.09;5099923;28;20497;-80
2022/01/05 10:05:34;;;;;;;15.52;4.63;;;;;;;1.22;92.75;98306.69;5115019;28;20040;-80
2022/01/05 10:08:01;;;;;;;16.30;2.88;;;;;;;1.18;93.62;98316.84;5110873;28;20487;-81
2022/01/05 10:10:28;;;;;;;8.15;2.25;;;;;;;1.20;88.85;98305.97;5094283;28;20050;-80
2022/01/05 10:12:55;;;;;;;5.30;1.45;;;;;;;1.16;88.87;98326.00;5097134;27;20533;-80
2022/01/05 10:15:23;;;;;;;2.35;1.15;;;;;;;1.22;90.34;98330.78;5115045;28;20079;-81
2022/01/05 10:17:50;;;;;;;3.65;1.20;;;;;;;1.32;94.03;98315.50;5113375;28;20039;-80
2022/01/05 10:20:22;;;;;;;9.82;2.05;;;;;;;1.30;92.89;98312.16;5094098;28;20048;-80
2022/01/05 10:22:49;;;;;;;5.00;1.77;;;;;;;1.35;91.18;98312.53;5094563;28;20044;-80
2022/01/05 10:25:18;;;;;;;4.93;1.42;;;;;;;1.30;91.28;98311.31;5119090;27;20380;-81
2022/01/05 10:27:56;;;;;;;6.35;1.27;;;;;;;1.31;90.59;98321.88;5114778;27;20071;-80
2022/01/05 10:30:35;;;;;;;7.78;1.20;;;;;;;1.40;93.07;98328.16;5093919;28;20079;-85
2022/01/05 10:33:20;;;;;;;2.93;1.23;;;;;;;1.41;91.92;98349.44;5096327;28;20044;-88
2022/01/05 10:35:57;;;;;;;4.97;1.77;;;;;;;1.29;88.43;98336.41;5094471;28;20294;-79
2022/01/05 10:38:29;;;;;;;2.95;1.45;;;;;;;1.24;90.48;98337.66;5104690;28;20040;-80
2022/01/05 10:40:56;;;;;;;6.22;1.98;;;;;;;1.17;92.70;98330.38;5106143;28;20047;-80
2022/01/05 10:43:23;;;;;;;4.05;1.55;;;;;;;1.26;94.13;98342.03;5113002;28;20519;-80
2022/01/05 10:45:51;;;;;;;8.48;2.00;;;;;;;1.24;94.01;98344.88;5114083;27;20065;-80
2022/01/05 10:48:22;;;;;;;9.52;1.85;;;;;;;1.27;93.20;98333.88;5113603;28;20433;-80
2022/01/05 10:51:04;;;;;;;7.22;1.73;;;;;;;1.54;95.03;98340.25;5114502;28;20057;-80
2022/01/05 10:53:31;;;;;;;4.78;1.70;;;;;;;1.59;96.42;98333.44;5109471;28;20044;-81
2022/01/05 10:55:58;;;;;;;5.63;2.00;;;;;;;1.86;98.87;98350.50;5103314;28;20518;-80
2022/01/05 10:58:25;;;;;;;7.35;1.85;;;;;;;1.77;96.41;98336.16;5110182;28;20044;-80
2022/01/05 11:00:54;;;;;;;8.05;1.80;;;;;;;1.87;91.68;98348.69;5112855;28;20051;-80
2022/01/05 11:03:24;;;;;;;12.35;2.00;;;;;;;1.78;87.91;98334.34;5112991;28;20056;-80
2022/01/05 11:06:08;;;;;;;13.43;2.95;;;;;;;1.75;90.31;98364.13;5113558;27;20044;-81
2022/01/05 11:08:48;;;;;;;8.30;2.90;;;;;;;1.75;89.01;98373.00;5094126;28;20055;-80
2022/01/05 11:11:36;;;;;;;6.47;1.98;;;;;;;1.70;93.26;98340.47;5106130;28;20044;-80
2022/01/05 11:14:03;;;;;;;5.20;1.70;;;;;;;1.75;88.44;98364.97;5101294;28;20055;-81
2022/01/05 11:16:31;;;;;;;2.80;1.42;;;;;;;1.65;88.49;98350.75;5113153;28;20047;-80
2022/01/05 11:19:21;;;;;;;7.22;1.73;;;;;;;1.77;94.08;98351.41;5113940;28;20040;-80
2022/01/05 11:22:05;;;;;;;8.10;1.58;;;;;;;1.86;92.60;98361.22;5107792;28;20407;-82
2022/01/05 11:24:35;;;;;;;5.78;1.50;;;;;;;1.83;90.50;98352.66;5106119;28;20044;-80
2022/01/05 11:27:02;;;;;;;9.48;2.28;;;;;;;1.76;92.24;98365.78;5113473;28;20488;-80
2022/01/05 11:29:30;;;;;;;5.70;1.73;;;;;;;1.72;91.16;98367.09;5109043;28;20050;-80
2022/01/05 11:31:57;;;;;;;16.50;1.60;;;;;;;1.71;90.82;98373.44;5107829;28;20044;-80
2022/01/05 11:34:28;;;;;;;5.32;1.45;;;;;;;1.65;87.78;98395.47;5098003;27;20540;-80
2022/01/05 11:36:55;;;;;;;7.72;2.72;;;;;;;1.49;89.98;98370.16;5113837;27;20047;-80
2022/01/05 11:39:24;;;;;;;7.95;1.60;;;;;;;1.60;90.36;98379.84;5112459;28;20126;-80
2022/01/05 11:41:53;;;;;;;5.22;1.98;;;;;;;1.61;90.59;98388.72;5113621;28;20051;-80